Accueil
METAR-TAF:

METAR-TAF

Aéroports :

Aéroport international de Cambridge

Cambridge, Angleterre

latitude: 52-12N, longitude: 000-11E, altitude: 15 m

Observation

Le bulletin a été fait il y a 17 heures et 49 minutes, à 17:50 UTC
Vent 7 kt de sud/sud-est
Température 7°C
Humidité 76%
Pression 1024 hPa
Visibilité 10 km ou plus
pas de nuages en-dessous de 1500 mètres et pas de cumulonimbus.

METAR: EGSC 151750Z 15007KT CAVOK 07/03 Q1024

Heure: 11:39 (11:39 UTC)

Prévision

Le bulletin a été fait il y a 18 heures et 38 minutes, à 17:01 UTC
Prévision valable du 15 à 18 UTC au 15 à 21 UTC
Vent 6 kt de sud
Visibilité 10 km ou plus
pas de nuages en-dessous de 1500 mètres et pas de cumulonimbus.
Temporairement
du 15 à 18 UTC au 15 à 21 UTC
Visibilité: 8000 m
Probabilité 30% :
Temporairement
du 15 à 18 UTC au 15 à 21 UTC
Visibilité: 4000 m
brume

TAF: EGSC 151701Z 1518/1521 17006KT CAVOK TEMPO 1518/1521 8000 PROB30 TEMPO 1518/1521 4000 BR

Observations et prévisions météorologiques de plus de 4000 aéroports (messages METAR et TAF).

Les stations disponibles sont représentées par des disques jaunes et rouges sur la carte.

Passer la souris dessus pour voir le nom de la station.

Cliquer dessus pour voir les observations et prévisions météorologiques.

Pour changer de carte: cliquez sur les boutons verts avec une croix noire pour zoomer, sur le bouton vert avec un tiret pour effectuer un zoom arrière, ou sur les flèches vertes pour les cartes adjacentes.


METAR-TAF: